Time;durP1;ratioP1;P1;durP2;ratioP2;P2;SDS_P1;SDS_P2;PMS_P1;PMS_P2;Temp;Humidity;BMP_temperature;BMP_pressure;BME280_temperature;BME280_humidity;BME280_pressure;Samples;Min_cycle;Max_cycle;Signal;HPM_P1;HPM_P2
2023/01/12 00:02:20;;;;;;;14.05;5.68;;;8.70;99.90;;;;;;5066980;28;20146;-74
2023/01/12 00:04:48;;;;;;;10.18;5.50;;;8.70;99.90;;;;;;5067922;28;20146;-74
2023/01/12 00:07:16;;;;;;;7.97;4.47;;;8.70;99.90;;;;;;5067011;28;20110;-74
2023/01/12 00:09:44;;;;;;;6.35;4.25;;;8.60;99.90;;;;;;5067306;28;20119;-73
2023/01/12 00:12:12;;;;;;;11.27;4.95;;;8.60;99.90;;;;;;5067529;28;20218;-73
2023/01/12 00:14:40;;;;;;;7.38;4.93;;;8.60;99.90;;;;;;5059300;28;20524;-74
2023/01/12 00:17:10;;;;;;;6.43;3.95;;;8.60;99.90;;;;;;5065441;28;20055;-73
2023/01/12 00:19:38;;;;;;;6.45;3.50;;;8.60;99.90;;;;;;5066707;28;20376;-73
2023/01/12 00:22:10;;;;;;;7.95;3.45;;;8.50;99.90;;;;;;5066570;28;20059;-73
2023/01/12 00:24:40;;;;;;;8.10;3.83;;;8.50;99.90;;;;;;5067490;28;20040;-73
2023/01/12 00:27:11;;;;;;;7.78;3.83;;;8.50;99.90;;;;;;5068518;28;20477;-74
2023/01/12 00:29:39;;;;;;;7.13;3.83;;;8.50;99.90;;;;;;5066656;28;20402;-74
2023/01/12 00:32:17;;;;;;;5.22;3.50;;;8.50;99.90;;;;;;5046961;28;20116;-74
2023/01/12 00:34:44;;;;;;;8.35;3.67;;;8.50;99.90;;;;;;5067815;28;20068;-73
2023/01/12 00:37:12;;;;;;;7.53;3.78;;;8.40;99.90;;;;;;5067972;28;20049;-74
2023/01/12 00:39:40;;;;;;;5.85;3.83;;;8.40;99.90;;;;;;5068121;28;20051;-73
2023/01/12 00:47:44;;;;;;;7.97;4.40;;;8.40;99.90;;;;;;5058343;28;20205;-73
2023/01/12 00:50:12;;;;;;;9.90;4.30;;;8.40;99.90;;;;;;5066297;28;20052;-73
2023/01/12 00:52:41;;;;;;;7.35;3.78;;;8.40;99.90;;;;;;5050483;28;20135;-74
2023/01/12 00:55:08;;;;;;;6.00;4.50;;;8.40;99.90;;;;;;5064794;28;20116;-73
2023/01/12 00:57:36;;;;;;;7.00;3.53;;;8.40;99.90;;;;;;5065122;28;20043;-73
2023/01/12 01:00:04;;;;;;;5.55;3.85;;;8.40;99.90;;;;;;5059617;28;20055;-73
2023/01/12 01:02:32;;;;;;;7.10;3.50;;;8.40;99.90;;;;;;5064367;28;20048;-73
2023/01/12 01:05:00;;;;;;;4.50;3.20;;;8.40;99.90;;;;;;5069610;28;20104;-74
2023/01/12 01:07:27;;;;;;;5.00;3.17;;;8.40;99.90;;;;;;5051770;28;20091;-72
2023/01/12 01:09:55;;;;;;;6.60;3.45;;;8.30;99.90;;;;;;5067903;28;20382;-73
2023/01/12 01:12:23;;;;;;;5.10;3.83;;;8.30;99.90;;;;;;5068070;28;20406;-72
2023/01/12 01:14:52;;;;;;;9.18;4.93;;;8.30;99.90;;;;;;5063542;28;20139;-73
2023/01/12 01:17:19;;;;;;;4.70;3.20;;;8.30;99.90;;;;;;5066599;28;20370;-73
2023/01/12 01:19:47;;;;;;;8.57;4.63;;;8.30;99.90;;;;;;5066038;28;20090;-73
2023/01/12 01:22:14;;;;;;;5.70;3.25;;;8.30;99.90;;;;;;5066917;28;20045;-72
2023/01/12 01:24:42;;;;;;;8.18;4.53;;;8.30;99.90;;;;;;5068671;28;20052;-73
2023/01/12 01:27:09;;;;;;;6.07;3.90;;;8.30;99.90;;;;;;5067377;28;20053;-73
2023/01/12 01:29:37;;;;;;;6.40;3.22;;;8.30;99.90;;;;;;5067664;28;20041;-73
2023/01/12 01:32:05;;;;;;;10.60;3.63;;;8.30;99.90;;;;;;5068662;28;20128;-73
2023/01/12 01:34:33;;;;;;;7.30;3.55;;;8.30;99.90;;;;;;5068710;28;20063;-73
2023/01/12 01:37:00;;;;;;;7.93;4.07;;;8.20;99.90;;;;;;5068476;28;20128;-73
2023/01/12 01:39:28;;;;;;;12.93;4.20;;;8.20;99.90;;;;;;5068247;28;20040;-73
2023/01/12 01:41:55;;;;;;;8.18;3.67;;;8.30;99.90;;;;;;5047395;28;20204;-73
2023/01/12 01:44:29;;;;;;;7.78;3.63;;;8.30;99.90;;;;;;5047408;28;20143;-72
2023/01/12 01:47:02;;;;;;;6.25;3.90;;;8.20;99.90;;;;;;5056058;28;20046;-73
2023/01/12 01:49:33;;;;;;;5.40;3.38;;;8.20;99.90;;;;;;5048943;28;20532;-73
2023/01/12 01:52:04;;;;;;;7.30;3.90;;;8.30;99.90;;;;;;5066829;28;20041;-73
2023/01/12 01:54:38;;;;;;;6.07;4.00;;;8.20;99.90;;;;;;5067525;28;20048;-73
2023/01/12 01:57:08;;;;;;;5.65;3.63;;;8.30;99.90;;;;;;5068140;28;20138;-73
2023/01/12 01:59:39;;;;;;;7.63;5.00;;;8.20;99.90;;;;;;5050350;28;20047;-73
2023/01/12 02:02:06;;;;;;;7.32;5.15;;;8.20;99.90;;;;;;5067380;28;20037;-72
2023/01/12 02:04:34;;;;;;;7.07;3.97;;;8.10;99.90;;;;;;5067105;28;20132;-73
2023/01/12 02:07:04;;;;;;;7.57;4.40;;;8.10;99.90;;;;;;5067131;28;20118;-73
2023/01/12 02:09:31;;;;;;;5.43;3.78;;;8.10;99.90;;;;;;5065459;28;20044;-73
2023/01/12 02:17:44;;;;;;;8.40;4.25;;;7.90;99.90;;;;;;5069117;28;20048;-73
2023/01/12 02:20:23;;;;;;;6.72;3.78;;;7.90;99.90;;;;;;5068626;28;20455;-72
2023/01/12 02:23:08;;;;;;;7.47;4.00;;;7.90;99.90;;;;;;5068472;28;20505;-73
2023/01/12 02:25:47;;;;;;;4.40;2.65;;;7.90;99.90;;;;;;5068229;28;20052;-73
2023/01/12 02:28:52;;;;;;;7.50;2.97;;;7.80;99.90;;;;;;5069659;28;20053;-73
2023/01/12 02:31:56;;;;;;;5.50;3.80;;;7.90;99.90;;;;;;5067959;28;20098;-72
2023/01/12 02:34:55;;;;;;;7.05;2.83;;;7.90;99.90;;;;;;5068213;28;20044;-73
2023/01/12 02:37:42;;;;;;;7.07;2.97;;;7.90;99.90;;;;;;5049503;28;20056;-73
2023/01/12 02:40:36;;;;;;;5.95;2.90;;;7.90;99.90;;;;;;5032589;28;20037;-73
2023/01/12 02:43:18;;;;;;;4.75;2.80;;;7.90;99.90;;;;;;5069542;28;20102;-73
2023/01/12 02:46:18;;;;;;;6.10;2.88;;;8.00;99.90;;;;;;5068052;28;20063;-73
2023/01/12 02:48:55;;;;;;;4.38;3.05;;;7.90;99.90;;;;;;5051284;28;20147;-73
2023/01/12 02:51:46;;;;;;;4.55;3.03;;;7.90;99.90;;;;;;5067115;28;20084;-72
2023/01/12 02:54:18;;;;;;;6.18;2.92;;;7.90;99.90;;;;;;5051717;28;20131;-73
2023/01/12 02:56:55;;;;;;;7.82;3.08;;;7.90;99.90;;;;;;5067959;28;20347;-73
2023/01/12 02:59:33;;;;;;;4.68;2.72;;;7.90;99.90;;;;;;5069065;28;20157;-72
2023/01/12 03:02:11;;;;;;;4.07;2.60;;;7.80;99.90;;;;;;5069491;28;20055;-73
2023/01/12 03:04:40;;;;;;;4.63;2.83;;;7.80;99.90;;;;;;5069492;28;20099;-72
2023/01/12 03:07:27;;;;;;;6.68;3.95;;;7.80;99.90;;;;;;5069092;28;20043;-72
2023/01/12 03:10:05;;;;;;;3.88;2.42;;;7.90;99.90;;;;;;5069288;28;20049;-72
2023/01/12 03:12:35;;;;;;;5.43;3.45;;;7.80;99.90;;;;;;5053701;28;20044;-73
2023/01/12 03:15:06;;;;;;;4.22;2.83;;;7.80;99.90;;;;;;5072871;28;20155;-73
2023/01/12 03:17:45;;;;;;;4.50;2.38;;;7.90;99.90;;;;;;5072312;28;20105;-73
2023/01/12 03:20:38;;;;;;;7.82;2.60;;;7.90;99.90;;;;;;5054897;28;20055;-72
2023/01/12 03:23:12;;;;;;;7.00;3.13;;;7.90;99.90;;;;;;5068167;28;20048;-73
2023/01/12 03:25:43;;;;;;;4.80;2.90;;;7.90;99.90;;;;;;5062959;28;20048;-73
2023/01/12 03:28:16;;;;;;;4.57;2.55;;;7.90;99.90;;;;;;5088054;28;20051;-73
2023/01/12 03:30:51;;;;;;;5.30;2.92;;;7.90;99.90;;;;;;5072654;28;20044;-72
2023/01/12 03:33:19;;;;;;;5.65;3.20;;;7.90;99.90;;;;;;5034490;28;20155;-72
2023/01/12 03:36:07;;;;;;;6.18;3.03;;;7.80;99.90;;;;;;5060599;28;20045;-73
2023/01/12 03:39:08;;;;;;;3.97;2.65;;;7.80;99.90;;;;;;5070859;28;20037;-73
2023/01/12 03:41:56;;;;;;;6.18;2.58;;;7.80;99.90;;;;;;5070780;28;20048;-73
2023/01/12 03:44:42;;;;;;;5.20;2.85;;;7.80;99.90;;;;;;5072136;28;20147;-72
2023/01/12 03:47:17;;;;;;;13.50;4.72;;;7.80;99.90;;;;;;5072226;28;20045;-72
2023/01/12 03:50:13;;;;;;;5.70;2.83;;;7.80;99.90;;;;;;5072246;28;20414;-73
2023/01/12 03:52:43;;;;;;;3.97;2.28;;;7.80;99.90;;;;;;5063957;28;20120;-72
2023/01/12 03:55:14;;;;;;;5.80;2.80;;;7.80;99.90;;;;;;5072151;28;20056;-73
2023/01/12 03:57:43;;;;;;;7.72;3.13;;;7.80;99.90;;;;;;5037811;28;20489;-72
2023/01/12 04:00:12;;;;;;;9.30;3.03;;;7.70;99.90;;;;;;5054174;28;20053;-73
2023/01/12 04:02:44;;;;;;;6.22;2.72;;;7.80;99.90;;;;;;5070687;28;20112;-73
2023/01/12 04:05:13;;;;;;;4.15;1.95;;;7.80;99.90;;;;;;5070524;28;20132;-72
2023/01/12 04:07:41;;;;;;;3.65;2.25;;;7.80;99.90;;;;;;5071533;28;20048;-72
2023/01/12 04:10:09;;;;;;;5.75;2.13;;;7.80;99.90;;;;;;5071827;28;20055;-72
2023/01/12 04:12:36;;;;;;;5.30;2.95;;;7.80;99.90;;;;;;5103912;28;20445;-73
2023/01/12 04:15:05;;;;;;;4.20;2.45;;;7.80;99.90;;;;;;5071637;28;20635;-72
2023/01/12 04:17:32;;;;;;;3.40;2.60;;;7.90;99.90;;;;;;5071299;28;20784;-72
2023/01/12 04:19:59;;;;;;;6.32;2.47;;;7.80;99.90;;;;;;5070330;28;20036;-72
2023/01/12 04:22:42;;;;;;;3.85;2.17;;;7.80;99.90;;;;;;5071486;28;20049;-72
2023/01/12 04:25:16;;;;;;;4.25;2.47;;;7.90;99.90;;;;;;5070220;28;20037;-73
2023/01/12 04:27:52;;;;;;;4.00;2.63;;;7.90;99.90;;;;;;5070087;28;20044;-73
2023/01/12 04:30:23;;;;;;;3.40;2.40;;;7.90;99.90;;;;;;5070219;28;20592;-72
2023/01/12 04:32:51;;;;;;;3.60;2.15;;;7.90;99.90;;;;;;5071464;28;20785;-73
2023/01/12 04:35:18;;;;;;;4.00;2.42;;;8.00;99.90;;;;;;5069751;28;20067;-73
2023/01/12 04:37:46;;;;;;;4.63;2.47;;;7.90;99.90;;;;;;5071017;28;20433;-73
2023/01/12 04:40:15;;;;;;;4.70;2.42;;;7.90;99.90;;;;;;5053436;28;20140;-72
2023/01/12 04:43:06;;;;;;;3.92;2.85;;;7.90;99.90;;;;;;5069745;28;20513;-72
2023/01/12 04:45:41;;;;;;;3.00;2.00;;;7.90;99.90;;;;;;5069682;28;20104;-72
2023/01/12 04:48:13;;;;;;;3.88;2.13;;;7.90;99.90;;;;;;5071152;28;20045;-72
2023/01/12 04:50:43;;;;;;;2.38;1.75;;;7.90;99.90;;;;;;5071061;28;20106;-72
2023/01/12 04:53:11;;;;;;;3.88;2.47;;;8.00;99.90;;;;;;5036744;28;20068;-72
2023/01/12 04:55:41;;;;;;;5.07;2.92;;;8.00;99.90;;;;;;5069557;28;20103;-73
2023/01/12 04:58:09;;;;;;;5.43;2.33;;;8.00;99.90;;;;;;5070705;28;20127;-73
2023/01/12 05:00:36;;;;;;;4.93;2.10;;;8.00;99.90;;;;;;5068773;28;20080;-73
2023/01/12 05:03:04;;;;;;;3.78;2.00;;;8.00;99.90;;;;;;5069545;28;20072;-72
2023/01/12 05:05:32;;;;;;;3.78;2.30;;;8.10;99.90;;;;;;5070678;28;20068;-73
2023/01/12 05:10:53;;;;;;;5.75;3.38;;;8.00;99.90;;;;;;5052752;28;20457;-72
2023/01/12 05:13:24;;;;;;;6.63;3.03;;;8.00;99.90;;;;;;5069364;28;20127;-73
2023/01/12 05:15:51;;;;;;;6.13;2.60;;;8.00;99.90;;;;;;5069068;28;20504;-72
2023/01/12 05:18:19;;;;;;;3.53;2.60;;;8.00;99.90;;;;;;5070535;28;20094;-73
2023/01/12 05:20:46;;;;;;;3.83;2.13;;;8.00;99.90;;;;;;5069456;28;20049;-73
2023/01/12 05:23:14;;;;;;;7.50;2.00;;;8.00;99.90;;;;;;5068787;28;20371;-73
2023/01/12 05:25:41;;;;;;;4.35;2.55;;;8.00;99.90;;;;;;5069029;28;20142;-73
2023/01/12 05:28:09;;;;;;;4.18;2.00;;;8.00;99.90;;;;;;5052245;28;20060;-73
2023/01/12 05:30:36;;;;;;;3.25;2.15;;;8.00;99.90;;;;;;5068899;28;20071;-73
2023/01/12 05:33:04;;;;;;;4.22;2.75;;;8.00;99.90;;;;;;5052544;28;20040;-73
2023/01/12 05:35:31;;;;;;;3.20;1.92;;;8.00;99.90;;;;;;5068480;28;20040;-72
2023/01/12 05:37:59;;;;;;;3.92;2.45;;;8.00;99.90;;;;;;5070104;28;20486;-73
2023/01/12 05:40:26;;;;;;;4.13;2.42;;;7.90;99.90;;;;;;5069993;28;20242;-72
2023/01/12 05:45:40;;;;;;;6.00;3.88;;;7.90;99.90;;;;;;5070076;28;20657;-72
2023/01/12 05:48:08;;;;;;;6.10;3.42;;;7.90;99.90;;;;;;5068798;28;20056;-73
2023/01/12 05:50:36;;;;;;;6.43;3.72;;;7.90;99.90;;;;;;5070072;28;20117;-73
2023/01/12 05:53:09;;;;;;;5.82;4.10;;;7.90;99.90;;;;;;5068547;28;20083;-73
2023/01/12 05:55:37;;;;;;;7.03;3.58;;;7.90;99.90;;;;;;5069567;28;20046;-73
2023/01/12 05:58:04;;;;;;;6.60;3.67;;;7.90;99.90;;;;;;5068707;28;20052;-73
2023/01/12 06:00:32;;;;;;;6.43;4.07;;;7.90;99.90;;;;;;5070101;28;20064;-72
2023/01/12 06:03:01;;;;;;;5.18;3.20;;;8.00;99.90;;;;;;5069955;28;20032;-72
2023/01/12 06:05:29;;;;;;;6.53;2.58;;;8.00;99.90;;;;;;5069679;28;20040;-72
2023/01/12 06:07:57;;;;;;;2.53;2.03;;;8.00;99.90;;;;;;5068752;28;20067;-73
2023/01/12 06:10:25;;;;;;;4.82;3.03;;;8.10;99.90;;;;;;5068169;28;20044;-72
2023/01/12 06:15:39;;;;;;;3.28;1.98;;;8.10;99.90;;;;;;5069567;28;20040;-73
2023/01/12 06:18:06;;;;;;;4.47;2.45;;;8.10;99.90;;;;;;5069767;28;20548;-72
2023/01/12 06:20:34;;;;;;;3.58;2.17;;;8.20;99.90;;;;;;5068363;28;20041;-72
2023/01/12 06:23:03;;;;;;;4.18;2.47;;;8.30;99.90;;;;;;5069574;28;20067;-73
2023/01/12 06:25:31;;;;;;;3.28;2.25;;;8.40;99.90;;;;;;5069401;28;20376;-73
2023/01/12 06:27:59;;;;;;;4.70;2.60;;;8.60;99.90;;;;;;5069772;28;20098;-72
2023/01/12 06:30:26;;;;;;;3.92;2.30;;;9.00;99.90;;;;;;5068495;28;20037;-73
2023/01/12 06:32:54;;;;;;;5.63;2.35;;;9.40;99.90;;;;;;5068200;28;20050;-73
2023/01/12 06:35:22;;;;;;;5.78;2.63;;;9.70;99.90;;;;;;5067876;28;20448;-73
2023/01/12 06:37:55;;;;;;;5.70;2.60;;;9.80;99.90;;;;;;5051928;28;20049;-73
2023/01/12 06:40:22;;;;;;;2.95;2.33;;;9.80;99.90;;;;;;5068328;28;20044;-72
2023/01/12 06:42:50;;;;;;;5.93;2.75;;;9.70;99.90;;;;;;5068194;28;20056;-73
2023/01/12 06:45:17;;;;;;;6.25;2.42;;;9.60;99.90;;;;;;5051373;28;20056;-73
2023/01/12 06:47:50;;;;;;;2.97;2.13;;;9.60;99.90;;;;;;5072433;28;20056;-72
2023/01/12 06:50:18;;;;;;;3.80;2.55;;;9.60;99.90;;;;;;5073312;28;20059;-72
2023/01/12 06:52:46;;;;;;;5.45;2.40;;;9.60;99.90;;;;;;5072088;28;20040;-72
2023/01/12 06:55:14;;;;;;;4.35;2.00;;;9.60;99.90;;;;;;5073081;28;20040;-73
2023/01/12 06:57:41;;;;;;;3.65;2.10;;;9.50;99.90;;;;;;5071545;28;20131;-72
2023/01/12 07:00:12;;;;;;;6.13;2.40;;;9.50;99.90;;;;;;5073210;28;20048;-73
2023/01/12 07:02:40;;;;;;;8.50;3.10;;;9.40;99.90;;;;;;5055351;28;20051;-73
2023/01/12 07:05:08;;;;;;;6.13;2.92;;;9.30;99.90;;;;;;5071844;28;20147;-73
2023/01/12 07:07:36;;;;;;;5.22;2.70;;;9.30;99.90;;;;;;5071046;28;20044;-73
2023/01/12 07:10:06;;;;;;;8.00;3.28;;;9.20;99.90;;;;;;5070913;28;20131;-72
2023/01/12 07:12:34;;;;;;;6.03;2.83;;;9.20;99.90;;;;;;5071659;28;20119;-72
2023/01/12 07:15:02;;;;;;;4.72;2.03;;;9.20;99.90;;;;;;5072752;28;20036;-72
2023/01/12 07:17:30;;;;;;;4.03;2.38;;;9.30;99.90;;;;;;5071248;28;20053;-73
2023/01/12 07:19:58;;;;;;;6.28;3.15;;;9.30;99.90;;;;;;5071748;28;20056;-72
2023/01/12 07:22:25;;;;;;;7.72;2.63;;;9.30;99.90;;;;;;5072914;28;20041;-72
2023/01/12 07:24:53;;;;;;;5.63;2.95;;;9.30;99.90;;;;;;5071145;28;20060;-72
2023/01/12 07:27:23;;;;;;;5.32;2.47;;;9.30;99.90;;;;;;5071074;28;20127;-72
2023/01/12 07:29:51;;;;;;;5.63;3.08;;;9.40;99.90;;;;;;5072530;28;20128;-72
2023/01/12 07:32:18;;;;;;;4.57;3.33;;;9.50;99.90;;;;;;5072560;28;20477;-73
2023/01/12 07:34:46;;;;;;;4.13;2.85;;;9.50;99.90;;;;;;5071031;28;20059;-73
2023/01/12 07:37:14;;;;;;;6.70;3.15;;;9.50;99.90;;;;;;5070708;28;20075;-73
2023/01/12 07:39:41;;;;;;;4.38;2.97;;;9.50;99.90;;;;;;5071166;28;20056;-73
2023/01/12 07:42:24;;;;;;;4.22;3.13;;;9.50;99.90;;;;;;5072019;28;20068;-73
2023/01/12 07:44:52;;;;;;;7.55;5.10;;;9.50;99.90;;;;;;5072200;28;20048;-73
2023/01/12 07:47:20;;;;;;;11.63;6.95;;;9.50;99.90;;;;;;5054432;28;20132;-72
2023/01/12 07:49:47;;;;;;;8.38;6.32;;;9.40;99.90;;;;;;5071084;28;20152;-73
2023/01/12 07:52:15;;;;;;;7.57;5.15;;;9.40;99.90;;;;;;5072088;28;20052;-73
2023/01/12 07:54:43;;;;;;;8.85;5.22;;;9.50;99.90;;;;;;5072124;28;20047;-72
2023/01/12 07:57:11;;;;;;;5.90;4.25;;;9.40;99.90;;;;;;5070352;28;20040;-73
2023/01/12 07:59:38;;;;;;;6.82;4.00;;;9.50;99.90;;;;;;5071053;28;20057;-73
2023/01/12 08:02:09;;;;;;;8.95;4.30;;;9.50;99.90;;;;;;5071951;28;20068;-72
2023/01/12 08:04:37;;;;;;;7.45;4.15;;;9.50;99.90;;;;;;5071989;28;20047;-73
2023/01/12 08:07:04;;;;;;;7.47;5.03;;;9.60;99.90;;;;;;5071946;28;20048;-73
2023/01/12 08:09:32;;;;;;;6.43;3.80;;;9.60;99.90;;;;;;5053460;28;20050;-73
2023/01/12 08:11:59;;;;;;;8.07;4.90;;;9.70;99.90;;;;;;5070493;28;20056;-73
2023/01/12 08:14:32;;;;;;;7.65;4.78;;;9.70;99.90;;;;;;5071833;28;20441;-72
2023/01/12 08:17:01;;;;;;;6.80;5.18;;;9.80;99.90;;;;;;5070154;28;20490;-73
2023/01/12 08:19:39;;;;;;;8.30;4.50;;;10.00;99.90;;;;;;5070319;28;20041;-72
2023/01/12 08:22:14;;;;;;;5.88;3.63;;;10.20;99.90;;;;;;5054067;28;20060;-73
2023/01/12 08:24:53;;;;;;;5.68;3.28;;;10.60;99.90;;;;;;5070341;28;20064;-73
2023/01/12 08:27:24;;;;;;;5.90;4.60;;;11.00;99.90;;;;;;5070132;28;20044;-73
2023/01/12 08:29:56;;;;;;;9.45;5.97;;;11.40;99.90;;;;;;5071695;28;20045;-72
2023/01/12 08:32:26;;;;;;;10.95;7.22;;;11.60;99.90;;;;;;5070395;28;20462;-73
2023/01/12 08:34:56;;;;;;;13.70;8.50;;;11.80;99.90;;;;;;5070118;28;20056;-72
2023/01/12 08:37:24;;;;;;;12.43;8.90;;;12.00;99.90;;;;;;5069868;28;20154;-73
2023/01/12 08:39:52;;;;;;;13.15;9.10;;;12.10;99.90;;;;;;5053616;28;20421;-73
2023/01/12 08:42:22;;;;;;;14.02;9.18;;;12.00;99.90;;;;;;5053943;28;20361;-72
2023/01/12 08:44:52;;;;;;;12.77;10.15;;;12.00;99.90;;;;;;5070203;28;20056;-73
2023/01/12 08:47:26;;;;;;;18.60;12.02;;;12.10;99.90;;;;;;5052945;28;20098;-73
2023/01/12 08:49:54;;;;;;;16.42;10.93;;;12.20;99.90;;;;;;5071258;28;20102;-73
2023/01/12 08:52:22;;;;;;;12.18;7.40;;;12.20;99.90;;;;;;5071107;28;20070;-73
2023/01/12 08:54:49;;;;;;;17.83;8.52;;;12.20;99.90;;;;;;5071104;28;20127;-72
2023/01/12 08:57:18;;;;;;;13.68;8.90;;;12.30;99.90;;;;;;5049604;28;20131;-73
2023/01/12 08:59:46;;;;;;;11.68;6.80;;;12.30;99.90;;;;;;5050982;28;20089;-72
2023/01/12 09:02:14;;;;;;;9.10;4.78;;;12.40;99.90;;;;;;5066159;28;20139;-73
2023/01/12 09:04:42;;;;;;;9.05;4.57;;;12.50;99.90;;;;;;5047421;28;20052;-73
2023/01/12 09:07:10;;;;;;;8.18;4.57;;;12.70;99.90;;;;;;5052124;28;20283;-73
2023/01/12 09:09:38;;;;;;;6.60;4.18;;;12.90;99.90;;;;;;5069995;28;20051;-73
2023/01/12 09:12:06;;;;;;;8.48;4.47;;;13.30;99.90;;;;;;5069150;28;20041;-73
2023/01/12 09:14:37;;;;;;;6.63;4.15;;;13.80;99.90;;;;;;5070457;28;20079;-73
2023/01/12 09:17:06;;;;;;;7.22;4.40;;;14.30;99.90;;;;;;5070360;28;20049;-72
2023/01/12 09:19:33;;;;;;;5.78;3.95;;;14.70;99.90;;;;;;5052429;28;20049;-73
2023/01/12 09:22:01;;;;;;;7.15;4.20;;;15.00;99.90;;;;;;5070387;28;20043;-72
2023/01/12 09:24:28;;;;;;;7.95;4.88;;;15.20;99.90;;;;;;5069200;28;20080;-73
2023/01/12 09:26:56;;;;;;;10.52;7.32;;;15.40;99.90;;;;;;5070278;28;20048;-73
2023/01/12 09:29:24;;;;;;;13.88;7.97;;;15.40;99.90;;;;;;5070121;28;20070;-73
2023/01/12 09:31:51;;;;;;;12.43;7.32;;;15.40;99.90;;;;;;5053004;28;20059;-73
2023/01/12 09:34:19;;;;;;;9.18;6.43;;;15.50;99.90;;;;;;5069129;28;20046;-72
2023/01/12 09:36:49;;;;;;;9.35;5.93;;;15.60;99.90;;;;;;5068846;28;20040;-73
2023/01/12 09:39:16;;;;;;;11.32;7.03;;;15.60;99.90;;;;;;5052216;28;20078;-72
2023/01/12 09:47:46;;;;;;;5.50;3.40;;;15.50;99.90;;;;;;5069916;28;20379;-73
2023/01/12 09:50:26;;;;;;;7.78;4.20;;;15.30;99.90;;;;;;5052422;28;20079;-73
2023/01/12 09:53:06;;;;;;;12.60;5.22;;;15.10;99.90;;;;;;5069075;28;20127;-72
2023/01/12 09:55:42;;;;;;;7.80;4.78;;;14.90;99.90;;;;;;5068767;28;20072;-73
2023/01/12 09:58:43;;;;;;;9.50;5.35;;;14.70;99.90;;;;;;5052263;28;20056;-73
2023/01/12 10:01:12;;;;;;;10.90;4.10;;;14.50;99.90;;;;;;5068265;28;20122;-73
2023/01/12 10:03:50;;;;;;;6.25;4.63;;;14.40;99.90;;;;;;5068550;28;20035;-73
2023/01/12 10:06:18;;;;;;;6.85;4.18;;;14.40;99.90;;;;;;5048520;28;20402;-74
2023/01/12 10:08:54;;;;;;;8.38;4.18;;;14.40;99.90;;;;;;5048741;28;20045;-72
2023/01/12 10:11:56;;;;;;;6.68;3.83;;;14.50;99.90;;;;;;5048265;28;20045;-72
2023/01/12 10:14:44;;;;;;;4.65;3.67;;;14.80;99.90;;;;;;5058135;28;20045;-73
2023/01/12 10:17:22;;;;;;;5.32;3.22;;;15.10;99.90;;;;;;5069315;28;20052;-72
2023/01/12 10:20:14;;;;;;;3.08;1.90;;;15.10;99.90;;;;;;5068198;28;20045;-73
2023/01/12 10:23:17;;;;;;;2.83;2.13;;;15.20;99.90;;;;;;5073791;28;20049;-72
2023/01/12 10:26:01;;;;;;;4.35;2.95;;;15.20;99.90;;;;;;5054058;28;20036;-73
2023/01/12 10:28:35;;;;;;;2.92;1.98;;;15.10;99.90;;;;;;5072554;28;20131;-74
2023/01/12 10:31:10;;;;;;;2.70;1.80;;;14.90;99.90;;;;;;5073675;28;20048;-72
2023/01/12 10:33:40;;;;;;;3.00;2.35;;;14.70;99.90;;;;;;5073344;28;20039;-73
2023/01/12 10:36:08;;;;;;;3.28;1.80;;;14.50;99.90;;;;;;5055382;28;20052;-72
2023/01/12 10:38:55;;;;;;;3.83;2.70;;;14.20;99.90;;;;;;5055545;28;20089;-73
2023/01/12 10:41:25;;;;;;;7.63;2.65;;;14.10;99.90;;;;;;5073243;28;20122;-73
2023/01/12 10:43:58;;;;;;;3.88;2.20;;;14.10;99.90;;;;;;5073258;28;20440;-73
2023/01/12 10:46:30;;;;;;;4.78;2.88;;;14.10;99.90;;;;;;5055755;28;20040;-72
2023/01/12 10:49:23;;;;;;;4.47;2.78;;;14.10;99.90;;;;;;5073308;28;20075;-73
2023/01/12 10:51:57;;;;;;;3.25;2.05;;;13.90;99.90;;;;;;5055524;28;20425;-73
2023/01/12 10:54:28;;;;;;;7.50;3.85;;;13.90;99.90;;;;;;5071886;28;20522;-73
2023/01/12 10:57:21;;;;;;;6.40;3.53;;;13.90;99.90;;;;;;5071895;28;20685;-73
2023/01/12 10:59:58;;;;;;;7.25;3.72;;;13.80;99.90;;;;;;5056956;28;20055;-73
2023/01/12 11:02:28;;;;;;;5.78;3.60;;;13.70;99.90;;;;;;5073251;28;20051;-72
2023/01/12 11:04:55;;;;;;;5.93;3.63;;;13.60;99.90;;;;;;5071355;28;20131;-73
2023/01/12 11:07:29;;;;;;;5.38;3.65;;;13.50;99.90;;;;;;5072845;28;20090;-72
2023/01/12 11:10:18;;;;;;;4.88;3.65;;;13.50;99.90;;;;;;5055388;28;20037;-73
2023/01/12 11:12:58;;;;;;;4.82;3.28;;;13.50;99.90;;;;;;5073285;28;20044;-73
2023/01/12 11:15:27;;;;;;;4.70;3.00;;;13.30;99.90;;;;;;5072624;28;20779;-72
2023/01/12 11:18:00;;;;;;;3.45;3.05;;;13.30;99.90;;;;;;5072893;28;20575;-72
2023/01/12 11:20:40;;;;;;;4.32;3.00;;;13.30;99.90;;;;;;5071586;28;20049;-73
2023/01/12 11:23:31;;;;;;;4.38;3.10;;;13.60;99.90;;;;;;5071491;28;20449;-73
2023/01/12 11:26:06;;;;;;;3.90;2.45;;;13.60;99.90;;;;;;5054123;28;20049;-74
2023/01/12 11:28:45;;;;;;;5.93;3.47;;;13.60;99.90;;;;;;5072627;28;20041;-73
2023/01/12 11:31:21;;;;;;;4.65;2.92;;;13.70;99.90;;;;;;5071317;28;20051;-72
2023/01/12 11:33:58;;;;;;;3.15;2.40;;;13.60;99.90;;;;;;5071725;28;20045;-73
2023/01/12 11:36:35;;;;;;;5.82;2.47;;;13.50;99.90;;;;;;5071563;28;20094;-72
2023/01/12 11:39:09;;;;;;;3.50;2.47;;;13.30;99.90;;;;;;5072465;28;20108;-74
2023/01/12 11:44:50;;;;;;;4.53;2.78;;;13.10;99.90;;;;;;5070797;28;20036;-73
2023/01/12 11:47:25;;;;;;;5.85;3.85;;;13.00;99.90;;;;;;5070943;28;20506;-73
2023/01/12 11:50:15;;;;;;;11.50;7.23;;;12.90;99.90;;;;;;5070920;28;20040;-72
2023/01/12 11:52:44;;;;;;;28.88;17.77;;;12.90;99.90;;;;;;5037835;28;20367;-73
2023/01/12 11:55:19;;;;;;;12.48;8.45;;;12.90;99.90;;;;;;5054843;28;20332;-73
2023/01/12 11:58:05;;;;;;;10.70;6.70;;;12.80;99.90;;;;;;5070658;28;20045;-73
2023/01/12 12:00:38;;;;;;;7.07;3.80;;;12.80;99.90;;;;;;5054261;28;20040;-73
2023/01/12 12:03:18;;;;;;;5.18;2.85;;;12.80;99.90;;;;;;5070954;28;20075;-73
2023/01/12 12:05:45;;;;;;;4.18;2.95;;;12.90;99.90;;;;;;5070579;28;20201;-72
2023/01/12 12:08:40;;;;;;;7.85;2.63;;;12.90;99.90;;;;;;5070530;28;20138;-72
2023/01/12 12:11:19;;;;;;;8.63;3.60;;;12.90;99.90;;;;;;5070602;28;20048;-72
2023/01/12 12:14:13;;;;;;;5.32;2.97;;;12.90;99.90;;;;;;5037693;28;20053;-73
2023/01/12 12:17:06;;;;;;;4.22;2.53;;;12.90;99.90;;;;;;5063370;28;20151;-73
2023/01/12 12:19:55;;;;;;;7.18;3.95;;;12.90;99.90;;;;;;5070196;28;20048;-72
2023/01/12 12:22:47;;;;;;;9.60;4.05;;;13.10;99.90;;;;;;5070508;28;20138;-74
2023/01/12 12:25:30;;;;;;;5.13;3.20;;;13.10;99.90;;;;;;5053757;28;20052;-73
2023/01/12 12:28:20;;;;;;;5.28;3.75;;;13.10;99.90;;;;;;5065072;28;20463;-72
2023/01/12 12:31:06;;;;;;;7.30;3.53;;;13.10;99.90;;;;;;5045580;28;20063;-72
2023/01/12 12:34:02;;;;;;;4.85;2.65;;;13.00;99.90;;;;;;5033454;28;20037;-73
2023/01/12 12:37:12;;;;;;;8.50;3.60;;;12.80;99.90;;;;;;5053747;28;20062;-73
2023/01/12 12:40:13;;;;;;;6.35;4.78;;;12.80;99.90;;;;;;5053669;28;20375;-73
2023/01/12 12:46:06;;;;;;;4.45;2.50;;;12.70;99.90;;;;;;5070590;28;20045;-72
2023/01/12 12:48:48;;;;;;;10.32;5.18;;;12.70;99.90;;;;;;5049936;28;20546;-72
2023/01/12 12:51:17;;;;;;;4.95;3.20;;;12.70;99.90;;;;;;5066700;28;20048;-72
2023/01/12 12:53:53;;;;;;;4.45;2.65;;;12.80;99.90;;;;;;5053366;28;20074;-72
2023/01/12 12:56:23;;;;;;;4.80;2.80;;;12.80;99.90;;;;;;5070900;28;20451;-73
2023/01/12 12:58:55;;;;;;;5.88;3.50;;;12.80;99.90;;;;;;5053072;28;20056;-73
2023/01/12 13:01:23;;;;;;;8.57;3.95;;;12.80;99.90;;;;;;5068833;28;20135;-73
2023/01/12 13:04:04;;;;;;;4.88;3.03;;;12.90;99.90;;;;;;5069749;28;20083;-74
2023/01/12 13:06:48;;;;;;;9.05;4.28;;;13.00;99.90;;;;;;5070467;28;20501;-73
2023/01/12 13:09:15;;;;;;;6.22;2.50;;;13.10;99.90;;;;;;5069217;28;20041;-72
2023/01/12 13:11:57;;;;;;;6.75;3.30;;;13.20;99.90;;;;;;5070668;28;20072;-73
2023/01/12 13:14:42;;;;;;;4.05;2.63;;;13.20;99.90;;;;;;5070740;28;20040;-72
2023/01/12 13:17:19;;;;;;;4.63;3.10;;;13.10;99.90;;;;;;5070424;28;20056;-72
2023/01/12 13:20:07;;;;;;;5.20;2.88;;;13.10;99.90;;;;;;5069190;28;20056;-73
2023/01/12 13:22:48;;;;;;;3.58;2.70;;;13.20;99.90;;;;;;5070581;28;20490;-72
2023/01/12 13:25:21;;;;;;;4.05;2.50;;;13.10;99.90;;;;;;5049188;28;20053;-73
2023/01/12 13:27:58;;;;;;;8.20;4.03;;;13.10;99.90;;;;;;5058929;28;20064;-72
2023/01/12 13:30:29;;;;;;;3.83;2.47;;;13.20;99.90;;;;;;5052697;28;20079;-73
2023/01/12 13:33:18;;;;;;;4.70;2.53;;;13.30;99.90;;;;;;5052734;28;20074;-73
2023/01/12 13:35:46;;;;;;;3.15;2.30;;;13.30;99.90;;;;;;5070436;28;20036;-74
2023/01/12 13:38:32;;;;;;;4.18;3.00;;;13.40;99.90;;;;;;5070390;28;20044;-74
2023/01/12 13:44:29;;;;;;;5.43;3.20;;;13.40;99.90;;;;;;5070439;28;20037;-72
2023/01/12 13:47:13;;;;;;;6.85;3.88;;;13.40;99.90;;;;;;5052170;28;20138;-73
2023/01/12 13:49:47;;;;;;;6.60;3.97;;;13.30;99.90;;;;;;5068712;28;20067;-73
2023/01/12 13:52:42;;;;;;;4.13;2.25;;;13.30;99.90;;;;;;5068869;28;20056;-72
2023/01/12 13:55:23;;;;;;;2.92;1.90;;;13.20;99.90;;;;;;5049636;28;20141;-72
2023/01/12 13:57:56;;;;;;;5.40;1.88;;;13.20;99.90;;;;;;5052364;28;20037;-73
2023/01/12 14:00:24;;;;;;;3.63;2.60;;;13.10;99.90;;;;;;5068956;28;20060;-73
2023/01/12 14:02:54;;;;;;;5.13;2.67;;;13.00;99.90;;;;;;5068145;28;20053;-73